createdAt,value
2017-07-23T00:02:01.320Z,95287.55
2017-07-23T00:04:28.897Z,95257.12
2017-07-23T00:06:56.508Z,95266.79
2017-07-23T00:09:24.070Z,95299.92
2017-07-23T00:11:51.577Z,95298.53
2017-07-23T00:14:19.144Z,95306.58
2017-07-23T00:16:46.680Z,95303.76
2017-07-23T00:19:14.198Z,95288.35
2017-07-23T00:21:41.769Z,95277.80
2017-07-23T00:24:09.283Z,95290.25
2017-07-23T00:26:36.797Z,95324.09
2017-07-23T00:29:04.429Z,95321.94
2017-07-23T00:31:31.971Z,95291.37
2017-07-23T00:33:59.499Z,95262.30
2017-07-23T00:36:27.114Z,95236.33
2017-07-23T00:38:54.626Z,95221.00
2017-07-23T00:41:22.159Z,95234.38
2017-07-23T00:43:49.703Z,95237.47
2017-07-23T00:46:17.286Z,95199.85
2017-07-23T00:48:44.828Z,95212.33
2017-07-23T00:51:12.370Z,95218.95
2017-07-23T00:53:39.931Z,95205.15
2017-07-23T00:56:07.504Z,95199.53
2017-07-23T00:58:35.063Z,95203.67
2017-07-23T01:01:02.581Z,95209.02
2017-07-23T01:03:30.095Z,95180.20
2017-07-23T01:05:57.704Z,95204.23
2017-07-23T01:08:25.210Z,95209.52
2017-07-23T01:10:52.757Z,95206.06
2017-07-23T01:13:20.329Z,95195.00
2017-07-23T01:15:47.828Z,95211.93
2017-07-23T01:18:15.345Z,95217.04
2017-07-23T01:20:42.927Z,95214.54
2017-07-23T01:23:10.437Z,95190.54
2017-07-23T01:25:37.966Z,95190.66
2017-07-23T01:28:05.504Z,95174.47
2017-07-23T01:30:33.048Z,95152.19
2017-07-23T01:33:00.547Z,95124.39
2017-07-23T01:35:28.189Z,95105.88
2017-07-23T01:37:55.805Z,95097.75
2017-07-23T01:40:23.317Z,95077.86
2017-07-23T01:42:50.894Z,95083.16
2017-07-23T01:45:18.398Z,95077.42
2017-07-23T01:47:45.905Z,95061.36
2017-07-23T01:50:13.444Z,95052.33
2017-07-23T01:52:40.937Z,95031.84
2017-07-23T01:55:08.456Z,95024.06
2017-07-23T01:57:35.994Z,95019.67
2017-07-23T02:00:03.495Z,94989.77
2017-07-23T02:02:31.008Z,94999.70
2017-07-23T02:04:59.085Z,94994.23
2017-07-23T02:07:26.727Z,95001.27
2017-07-23T02:09:54.261Z,94995.68
2017-07-23T02:12:21.817Z,95003.17
2017-07-23T02:14:49.315Z,95002.77
2017-07-23T02:17:16.822Z,94991.23
2017-07-23T02:19:44.360Z,94996.09
2017-07-23T02:22:11.900Z,94989.82
2017-07-23T02:24:39.393Z,94989.97
2017-07-23T02:27:06.888Z,94985.66
2017-07-23T02:29:34.434Z,95006.42
2017-07-23T02:32:01.961Z,94995.09
2017-07-23T02:34:29.532Z,95016.28
2017-07-23T02:36:57.078Z,95044.33
2017-07-23T02:39:24.576Z,95064.60
2017-07-23T02:41:52.073Z,95080.64
2017-07-23T02:44:19.609Z,95080.07
2017-07-23T02:46:47.105Z,95063.16
2017-07-23T02:49:14.652Z,95046.34
2017-07-23T02:51:42.230Z,95042.55
2017-07-23T02:54:09.793Z,95054.98
2017-07-23T02:56:37.297Z,95073.48
2017-07-23T02:59:04.799Z,95087.16
2017-07-23T03:01:32.411Z,95066.36
2017-07-23T03:03:59.921Z,95098.66
2017-07-23T03:06:27.431Z,95106.02
2017-07-23T03:08:55.029Z,95077.85
2017-07-23T03:11:22.533Z,95103.55
2017-07-23T03:13:50.038Z,95095.48
2017-07-23T03:16:17.601Z,95100.08
2017-07-23T03:18:45.126Z,95087.73
2017-07-23T03:21:12.633Z,95084.64
2017-07-23T03:23:40.186Z,95074.94
2017-07-23T03:26:07.721Z,95090.09
2017-07-23T03:28:35.282Z,95095.37
2017-07-23T03:31:02.854Z,95091.63
2017-07-23T03:33:30.414Z,95093.09
2017-07-23T03:35:57.946Z,95098.77
2017-07-23T03:38:25.453Z,95093.95
2017-07-23T03:40:53.061Z,95087.94
2017-07-23T03:43:20.597Z,95091.16
2017-07-23T03:45:48.098Z,95099.68
2017-07-23T03:48:15.643Z,95100.73
2017-07-23T03:50:43.179Z,95095.68
2017-07-23T03:53:10.730Z,95097.47
2017-07-23T03:55:38.277Z,95089.33
2017-07-23T03:58:05.789Z,95086.03
2017-07-23T04:00:33.353Z,95101.98
2017-07-23T04:03:00.874Z,95096.76
2017-07-23T04:05:28.510Z,95089.48
2017-07-23T04:07:56.074Z,95078.98
2017-07-23T04:10:24.344Z,95091.24
2017-07-23T04:12:51.837Z,95089.12
2017-07-23T04:15:19.383Z,95077.02
2017-07-23T04:17:46.878Z,95084.41
2017-07-23T04:20:14.369Z,95082.34
2017-07-23T04:22:41.922Z,95088.44
2017-07-23T04:25:09.433Z,95079.00
2017-07-23T04:27:36.990Z,95063.55
2017-07-23T04:30:04.497Z,95076.31
2017-07-23T04:32:32.029Z,95083.39
2017-07-23T04:34:59.587Z,95066.44
2017-07-23T04:37:27.136Z,95081.55
2017-07-23T04:39:54.645Z,95071.77
2017-07-23T04:42:22.193Z,95075.27
2017-07-23T04:44:49.698Z,95076.72
2017-07-23T04:47:17.273Z,95069.33
2017-07-23T04:49:44.767Z,95065.26
2017-07-23T04:52:12.261Z,95076.66
2017-07-23T04:54:39.813Z,95079.13
2017-07-23T04:57:07.361Z,95079.27
2017-07-23T04:59:34.856Z,95074.39
2017-07-23T05:02:02.392Z,95090.30
2017-07-23T05:04:29.901Z,95092.56
2017-07-23T05:06:57.576Z,95092.08
2017-07-23T05:09:25.121Z,95089.78
2017-07-23T05:11:52.625Z,95096.97
2017-07-23T05:14:20.240Z,95094.28
2017-07-23T05:16:47.787Z,95095.33
2017-07-23T05:19:15.285Z,95099.73
2017-07-23T05:21:42.832Z,95081.72
2017-07-23T05:24:10.381Z,95098.80
2017-07-23T05:26:37.902Z,95092.13
2017-07-23T05:29:05.469Z,95102.77
2017-07-23T05:31:33.018Z,95096.24
2017-07-23T05:34:00.573Z,95083.85
2017-07-23T05:36:28.259Z,95097.03
2017-07-23T05:38:55.817Z,95093.91
2017-07-23T05:41:23.731Z,95096.91
2017-07-23T05:43:51.308Z,95104.01
2017-07-23T05:46:18.931Z,95100.95
2017-07-23T05:48:46.449Z,95103.04
2017-07-23T05:51:13.989Z,95094.36
2017-07-23T05:53:41.513Z,95087.23
2017-07-23T05:56:09.073Z,95084.40
2017-07-23T05:58:36.762Z,95094.80
2017-07-23T06:01:04.341Z,95094.30
2017-07-23T06:03:31.876Z,95086.56
2017-07-23T06:05:59.437Z,95093.04
2017-07-23T06:08:27.063Z,95086.27
2017-07-23T06:10:54.575Z,95092.91
2017-07-23T06:13:22.132Z,95091.33
2017-07-23T06:15:49.662Z,95092.12
2017-07-23T06:18:17.253Z,95088.02
2017-07-23T06:20:44.791Z,95079.79
2017-07-23T06:23:12.309Z,95080.50
2017-07-23T06:25:39.890Z,95079.75
2017-07-23T06:28:07.417Z,95092.44
2017-07-23T06:30:34.925Z,95081.98
2017-07-23T06:33:02.506Z,95090.28
2017-07-23T06:35:30.012Z,95089.48
2017-07-23T06:37:57.601Z,95077.94
2017-07-23T06:40:25.120Z,95086.58
2017-07-23T06:42:52.629Z,95089.95
2017-07-23T06:45:20.195Z,95094.41
2017-07-23T06:47:48.089Z,95084.27
2017-07-23T06:50:15.681Z,95091.66
2017-07-23T06:52:43.715Z,95086.09
2017-07-23T06:55:11.270Z,95080.20
2017-07-23T06:57:38.845Z,95079.80
2017-07-23T07:00:06.392Z,95086.23
2017-07-23T07:02:33.962Z,95071.34
2017-07-23T07:05:01.497Z,95076.17
2017-07-23T07:07:29.080Z,95068.77
2017-07-23T07:09:56.644Z,95069.42
2017-07-23T07:12:24.164Z,95066.40
2017-07-23T07:14:51.672Z,95073.12
2017-07-23T07:17:19.217Z,95059.19
2017-07-23T07:19:46.732Z,95063.31
2017-07-23T07:22:14.281Z,95058.77
2017-07-23T07:24:41.795Z,95046.31
2017-07-23T07:27:09.346Z,95055.27
2017-07-23T07:29:36.889Z,95062.48
2017-07-23T07:32:04.406Z,95057.01
2017-07-23T07:34:32.003Z,95043.36
2017-07-23T07:36:59.523Z,95049.01
2017-07-23T07:39:27.100Z,95049.19
2017-07-23T07:41:54.665Z,95052.09
2017-07-23T07:44:22.208Z,95054.38
2017-07-23T07:46:49.759Z,95052.94
2017-07-23T07:49:17.394Z,95047.59
2017-07-23T07:51:44.944Z,95043.98
2017-07-23T07:54:12.504Z,95054.60
2017-07-23T07:56:40.017Z,95048.48
2017-07-23T07:59:07.566Z,95031.06
2017-07-23T08:01:35.194Z,95047.22
2017-07-23T08:04:02.722Z,95032.83
2017-07-23T08:06:30.242Z,95037.41
2017-07-23T08:08:57.826Z,95040.03
2017-07-23T08:11:25.394Z,95037.34
2017-07-23T08:13:52.959Z,95032.98
2017-07-23T08:16:20.589Z,95033.99
2017-07-23T08:18:48.195Z,95028.09
2017-07-23T08:21:15.735Z,95029.45
2017-07-23T08:23:43.262Z,95037.20
2017-07-23T08:26:10.813Z,95036.45
2017-07-23T08:28:38.367Z,95028.41
2017-07-23T08:31:05.974Z,95041.13
2017-07-23T08:33:33.477Z,95033.00
2017-07-23T08:36:01.955Z,95035.94
2017-07-23T08:38:29.476Z,95030.27
2017-07-23T08:40:57.009Z,95017.47
2017-07-23T08:43:24.570Z,95026.68
2017-07-23T08:45:52.121Z,95030.56
2017-07-23T08:48:19.629Z,95033.13
2017-07-23T08:50:47.170Z,95031.53
2017-07-23T08:53:14.680Z,95029.16
2017-07-23T08:55:42.239Z,95015.31
2017-07-23T08:58:09.800Z,95022.22
2017-07-23T09:00:37.309Z,95017.16
2017-07-23T09:03:04.844Z,95018.95
2017-07-23T09:05:33.295Z,95020.42
2017-07-23T09:08:00.816Z,95013.94
2017-07-23T09:10:28.408Z,95004.23
2017-07-23T09:12:56.034Z,95011.03
2017-07-23T09:15:23.595Z,95009.37
2017-07-23T09:17:51.111Z,94998.07
2017-07-23T09:20:18.687Z,95006.09
2017-07-23T09:22:46.193Z,95003.36
2017-07-23T09:25:14.976Z,95001.77
2017-07-23T09:27:42.526Z,94994.80
2017-07-23T09:30:10.104Z,94996.52
2017-07-23T09:32:37.658Z,94998.33
2017-07-23T09:35:05.173Z,94995.95
2017-07-23T09:37:32.693Z,94988.90
2017-07-23T09:40:00.246Z,94995.77
2017-07-23T09:42:27.761Z,94992.38
2017-07-23T09:44:55.309Z,95003.18
2017-07-23T09:47:22.833Z,94992.69
2017-07-23T09:49:50.373Z,94986.03
2017-07-23T09:52:17.891Z,94987.39
2017-07-23T09:54:47.074Z,94973.97
2017-07-23T09:57:14.586Z,94982.61
2017-07-23T09:59:42.093Z,94982.36
2017-07-23T10:02:09.684Z,94976.17
2017-07-23T10:04:37.219Z,94971.38
2017-07-23T10:07:04.729Z,94977.03
2017-07-23T10:09:32.289Z,94957.23
2017-07-23T10:11:59.799Z,94955.02
2017-07-23T10:14:27.316Z,94970.23
2017-07-23T10:16:54.858Z,94969.27
2017-07-23T10:19:22.872Z,94958.39
2017-07-23T10:21:50.460Z,94961.59
2017-07-23T10:24:17.974Z,94958.72
2017-07-23T10:26:45.483Z,94961.13
2017-07-23T10:29:13.049Z,94956.13
2017-07-23T10:31:41.526Z,94940.48
2017-07-23T10:34:09.034Z,94947.17
2017-07-23T10:36:36.596Z,94938.61
2017-07-23T10:39:04.102Z,94939.14
2017-07-23T10:41:31.608Z,94939.94
2017-07-23T10:43:59.166Z,94934.76
2017-07-23T10:46:26.709Z,94905.77
2017-07-23T10:48:54.229Z,94928.17
2017-07-23T10:51:21.801Z,94930.66
2017-07-23T10:53:49.354Z,94917.14
2017-07-23T10:56:16.866Z,94921.73
2017-07-23T10:58:44.414Z,94926.80
2017-07-23T11:01:12.781Z,94919.08
2017-07-23T11:03:40.286Z,94911.16
2017-07-23T11:06:07.826Z,94915.30
2017-07-23T11:08:35.401Z,94909.44
2017-07-23T11:11:02.928Z,94904.80
2017-07-23T11:13:30.499Z,94907.92
2017-07-23T11:15:58.017Z,94906.48
2017-07-23T11:18:25.536Z,94919.00
2017-07-23T11:20:53.106Z,94889.65
2017-07-23T11:23:20.631Z,94892.45
2017-07-23T11:25:48.198Z,94892.85
2017-07-23T11:28:15.729Z,94893.09
2017-07-23T11:30:43.244Z,94894.66
2017-07-23T11:33:10.836Z,94880.32
2017-07-23T11:35:38.363Z,94851.10
2017-07-23T11:38:19.029Z,94880.95
2017-07-23T11:40:46.598Z,94880.01
2017-07-23T11:43:14.141Z,94877.17
2017-07-23T11:45:41.705Z,94871.34
2017-07-23T11:48:09.288Z,94866.63
2017-07-23T11:50:36.834Z,94871.94
2017-07-23T11:53:04.417Z,94855.45
2017-07-23T11:55:32.894Z,94875.83
2017-07-23T11:58:00.650Z,94863.00
2017-07-23T12:00:28.237Z,94847.48
2017-07-23T12:02:55.784Z,94855.86
2017-07-23T12:05:23.310Z,94847.16
2017-07-23T12:07:51.632Z,94849.61
2017-07-23T12:10:19.193Z,94844.86
2017-07-23T12:12:46.768Z,94835.64
2017-07-23T12:15:14.353Z,94835.03
2017-07-23T12:17:41.876Z,94830.22
2017-07-23T12:20:09.424Z,94832.08
2017-07-23T12:22:36.982Z,94832.95
2017-07-23T12:25:04.556Z,94791.96
2017-07-23T12:27:32.131Z,94817.83
2017-07-23T12:29:59.649Z,94823.17
2017-07-23T12:32:27.233Z,94819.00
2017-07-23T12:34:54.777Z,94792.19
2017-07-23T12:37:22.291Z,94814.14
2017-07-23T12:39:49.869Z,94801.64
2017-07-23T12:42:17.385Z,94807.11
2017-07-23T12:44:45.422Z,94799.94
2017-07-23T12:47:13.722Z,94798.05
2017-07-23T12:49:41.281Z,94786.48
2017-07-23T12:52:08.810Z,94789.28
2017-07-23T12:54:37.141Z,94770.58
2017-07-23T12:57:04.730Z,94783.30
2017-07-23T12:59:32.272Z,94776.30
2017-07-23T13:01:59.776Z,94765.13
2017-07-23T13:04:27.343Z,94764.55
2017-07-23T13:06:54.859Z,94763.58
2017-07-23T13:09:22.369Z,94761.93
2017-07-23T13:11:49.933Z,94751.72
2017-07-23T13:14:22.097Z,94760.88
2017-07-23T13:16:49.649Z,94763.48
2017-07-23T13:19:17.889Z,94750.94
2017-07-23T13:21:45.418Z,94746.96
2017-07-23T13:24:12.939Z,94741.55
2017-07-23T13:26:40.497Z,94722.61
2017-07-23T13:29:08.009Z,94737.11
2017-07-23T13:31:35.546Z,94725.53
2017-07-23T13:34:03.109Z,94727.66
2017-07-23T13:36:30.614Z,94719.16
2017-07-23T13:38:58.266Z,94728.67
2017-07-23T13:41:25.827Z,94725.66
2017-07-23T13:43:53.368Z,94733.16
2017-07-23T13:46:20.933Z,94729.16
2017-07-23T13:48:48.438Z,94728.27
2017-07-23T13:51:15.988Z,94718.19
2017-07-23T13:53:43.505Z,94727.88
2017-07-23T13:56:11.052Z,94701.05
2017-07-23T13:58:38.569Z,94711.81
2017-07-23T14:01:06.140Z,94723.02
2017-07-23T14:03:33.670Z,94727.09
2017-07-23T14:06:01.245Z,94707.16
2017-07-23T14:08:28.761Z,94697.56
2017-07-23T14:10:56.418Z,94703.09
2017-07-23T14:13:24.224Z,94706.86
2017-07-23T14:15:51.770Z,94705.94
2017-07-23T14:18:19.354Z,94706.77
2017-07-23T14:20:47.199Z,94686.93
2017-07-23T14:23:14.746Z,94701.51
2017-07-23T14:25:42.249Z,94703.81
2017-07-23T14:28:09.803Z,94701.20
2017-07-23T14:30:37.309Z,94706.86
2017-07-23T14:33:04.816Z,94689.60
2017-07-23T14:35:32.387Z,94670.34
2017-07-23T14:37:59.901Z,94691.61
2017-07-23T14:40:27.493Z,94679.91
2017-07-23T14:42:55.003Z,94673.02
2017-07-23T14:45:22.512Z,94684.65
2017-07-23T14:47:50.078Z,94675.88
2017-07-23T14:50:17.606Z,94671.70
2017-07-23T14:52:45.158Z,94673.52
2017-07-23T14:55:12.665Z,94668.36
2017-07-23T14:57:40.181Z,94664.32
2017-07-23T15:00:07.723Z,94663.74
2017-07-23T15:02:35.236Z,94659.61
2017-07-23T15:05:02.822Z,94654.08
2017-07-23T15:07:30.330Z,94671.06
2017-07-23T15:09:57.892Z,94674.61
2017-07-23T15:12:25.547Z,94669.45
2017-07-23T15:14:53.089Z,94670.77
2017-07-23T15:17:20.633Z,94668.84
2017-07-23T15:19:48.155Z,94666.02
2017-07-23T15:22:15.681Z,94662.31
2017-07-23T15:24:43.281Z,94672.03
2017-07-23T15:27:11.882Z,94681.45
2017-07-23T15:29:39.443Z,94688.29
2017-07-23T15:32:06.978Z,94680.05
2017-07-23T15:34:34.526Z,94681.30
2017-07-23T15:37:02.081Z,94665.69
2017-07-23T15:39:29.633Z,94671.95
2017-07-23T15:41:57.180Z,94663.44
2017-07-23T15:44:25.613Z,94676.08
2017-07-23T15:46:53.123Z,94691.02
2017-07-23T15:49:20.702Z,94705.64
2017-07-23T15:51:48.213Z,94705.55
2017-07-23T15:54:15.721Z,94721.66
2017-07-23T15:56:43.553Z,94717.19
2017-07-23T15:59:11.108Z,94715.61
2017-07-23T16:01:38.659Z,94714.94
2017-07-23T16:04:06.219Z,94722.75
2017-07-23T16:06:33.721Z,94720.56
2017-07-23T16:09:01.289Z,94725.66
2017-07-23T16:11:28.802Z,94722.35
2017-07-23T16:13:56.398Z,94721.56
2017-07-23T16:16:23.934Z,94718.31
2017-07-23T16:21:25.290Z,94725.45
2017-07-23T16:23:52.823Z,94729.64
2017-07-23T16:26:20.328Z,94735.51
2017-07-23T16:28:47.900Z,94729.19
2017-07-23T16:31:15.413Z,94728.55
2017-07-23T16:33:42.930Z,94720.16
2017-07-23T16:36:11.461Z,94711.17
2017-07-23T16:38:39.738Z,94703.97
2017-07-23T16:41:07.245Z,94705.00
2017-07-23T16:43:35.689Z,94698.69
2017-07-23T16:46:03.228Z,94697.41
2017-07-23T16:48:30.795Z,94698.84
2017-07-23T16:50:58.305Z,94694.28
2017-07-23T16:53:25.802Z,94705.82
2017-07-23T16:55:53.366Z,94708.34
2017-07-23T16:58:20.886Z,94711.35
2017-07-23T17:00:48.392Z,94706.47
2017-07-23T17:03:15.938Z,94703.15
2017-07-23T17:05:43.458Z,94698.98
2017-07-23T17:08:11.010Z,94701.66
2017-07-23T17:10:38.545Z,94688.20
2017-07-23T17:13:06.042Z,94690.75
2017-07-23T17:15:33.866Z,94689.33
2017-07-23T17:18:01.369Z,94677.36
2017-07-23T17:20:28.883Z,94693.03
2017-07-23T17:22:56.414Z,94687.27
2017-07-23T17:27:57.751Z,94696.41
2017-07-23T17:30:25.265Z,94695.28
2017-07-23T17:32:52.772Z,94692.09
2017-07-23T17:35:20.319Z,94705.48
2017-07-23T17:37:47.869Z,94708.50
2017-07-23T17:40:15.369Z,94726.23
2017-07-23T17:42:42.874Z,94707.03
2017-07-23T17:45:14.017Z,94722.16
2017-07-23T17:47:41.561Z,94718.87
2017-07-23T17:50:09.102Z,94731.98
2017-07-23T17:52:36.636Z,94733.92
2017-07-23T17:55:04.171Z,94736.67
2017-07-23T17:57:31.694Z,94740.41
2017-07-23T17:59:59.288Z,94743.79
2017-07-23T18:02:26.789Z,94757.88
2017-07-23T18:04:54.583Z,94766.50
2017-07-23T18:07:23.030Z,94780.99
2017-07-23T18:09:50.538Z,94791.13
2017-07-23T18:12:18.083Z,94787.25
2017-07-23T18:14:45.853Z,94790.89
2017-07-23T18:17:13.360Z,94794.00
2017-07-23T18:19:40.905Z,94802.10
2017-07-23T18:22:08.450Z,94804.88
2017-07-23T18:24:35.965Z,94810.20
2017-07-23T18:27:03.529Z,94820.34
2017-07-23T18:29:31.033Z,94819.13
2017-07-23T18:31:58.541Z,94820.97
2017-07-23T18:34:26.097Z,94821.87
2017-07-23T18:36:53.603Z,94816.91
2017-07-23T18:39:21.985Z,94833.48
2017-07-23T18:41:49.525Z,94826.43
2017-07-23T18:44:17.026Z,94828.45
2017-07-23T18:46:45.553Z,94834.95
2017-07-23T18:49:13.108Z,94832.91
2017-07-23T18:51:40.628Z,94819.14
2017-07-23T18:54:08.138Z,94832.41
2017-07-23T18:56:35.682Z,94840.25
2017-07-23T18:59:03.219Z,94838.20
2017-07-23T19:01:30.737Z,94836.61
2017-07-23T19:03:58.261Z,94850.27
2017-07-23T19:06:25.829Z,94840.39
2017-07-23T19:08:53.333Z,94845.27
2017-07-23T19:11:20.833Z,94848.54
2017-07-23T19:13:48.462Z,94841.17
2017-07-23T19:16:15.999Z,94853.78
2017-07-23T19:18:43.500Z,94844.30
2017-07-23T19:21:11.094Z,94849.40
2017-07-23T19:23:38.609Z,94855.80
2017-07-23T19:26:06.105Z,94842.41
2017-07-23T19:28:33.672Z,94856.77
2017-07-23T19:31:01.169Z,94843.92
2017-07-23T19:33:28.849Z,94821.77
2017-07-23T19:35:56.358Z,94834.18
2017-07-23T19:38:23.856Z,94832.27
2017-07-23T19:40:52.073Z,94837.62
2017-07-23T19:43:19.577Z,94836.61
2017-07-23T19:45:47.156Z,94839.11
2017-07-23T19:48:14.654Z,94845.62
2017-07-23T19:50:42.161Z,94853.12
2017-07-23T19:53:09.716Z,94852.40
2017-07-23T19:55:38.208Z,94857.66
2017-07-23T19:58:05.775Z,94854.00
2017-07-23T20:00:33.303Z,94831.02
2017-07-23T20:03:00.876Z,94840.95
2017-07-23T20:05:28.385Z,94846.37
2017-07-23T20:07:55.878Z,94826.21
2017-07-23T20:10:23.423Z,94828.08
2017-07-23T20:12:51.010Z,94841.46
2017-07-23T20:15:18.521Z,94814.12
2017-07-23T20:17:46.017Z,94836.59
2017-07-23T20:20:13.569Z,94835.36
2017-07-23T20:22:41.066Z,94840.12
2017-07-23T20:25:08.560Z,94835.59
2017-07-23T20:27:36.169Z,94845.27
2017-07-23T20:30:03.664Z,94840.52
2017-07-23T20:32:31.328Z,94836.95
2017-07-23T20:34:58.873Z,94834.66
2017-07-23T20:37:26.409Z,94839.09
2017-07-23T20:39:53.919Z,94848.73
2017-07-23T20:42:21.461Z,94835.81
2017-07-23T20:44:48.965Z,94848.13
2017-07-23T20:47:16.465Z,94854.46
2017-07-23T20:49:44.018Z,94848.13
2017-07-23T20:52:11.518Z,94848.27
2017-07-23T20:54:39.025Z,94835.19
2017-07-23T20:57:06.572Z,94845.09
2017-07-23T20:59:34.068Z,94846.11
2017-07-23T21:02:01.615Z,94855.13
2017-07-23T21:04:30.757Z,94857.14
2017-07-23T21:06:58.297Z,94853.46
2017-07-23T21:09:25.806Z,94856.19
2017-07-23T21:11:53.353Z,94854.11
2017-07-23T21:14:20.858Z,94848.21
2017-07-23T21:16:48.397Z,94846.49
2017-07-23T21:19:15.951Z,94837.16
2017-07-23T21:21:43.449Z,94843.98
2017-07-23T21:24:11.012Z,94843.15
2017-07-23T21:26:38.563Z,94835.46
2017-07-23T21:29:06.059Z,94836.72
2017-07-23T21:31:33.613Z,94843.67
2017-07-23T21:34:01.121Z,94845.93
2017-07-23T21:36:28.617Z,94847.47
2017-07-23T21:38:56.193Z,94847.56
2017-07-23T21:41:23.684Z,94849.14
2017-07-23T21:43:51.184Z,94850.16
2017-07-23T21:46:18.729Z,94850.68
2017-07-23T21:48:46.229Z,94836.42
2017-07-23T21:51:13.775Z,94837.89
2017-07-23T21:53:41.278Z,94823.90
2017-07-23T21:56:08.841Z,94843.59
2017-07-23T21:58:36.341Z,94845.67
2017-07-23T22:01:03.845Z,94836.88
2017-07-23T22:03:31.385Z,94831.64
2017-07-23T22:05:58.881Z,94827.16
2017-07-23T22:08:26.646Z,94823.98
2017-07-23T22:10:54.962Z,94829.14
2017-07-23T22:13:22.478Z,94827.89
2017-07-23T22:15:49.989Z,94813.25
2017-07-23T22:18:17.553Z,94804.95
2017-07-23T22:20:45.170Z,94818.91
2017-07-23T22:23:12.691Z,94813.28
2017-07-23T22:25:40.236Z,94817.03
2017-07-23T22:28:07.831Z,94804.50
2017-07-23T22:30:35.345Z,94814.13
2017-07-23T22:33:02.866Z,94814.31
2017-07-23T22:35:30.405Z,94810.66
2017-07-23T22:37:57.954Z,94796.06
2017-07-23T22:40:25.501Z,94808.16
2017-07-23T22:42:53.035Z,94801.69
2017-07-23T22:45:21.306Z,94792.33
2017-07-23T22:47:51.697Z,94796.02
2017-07-23T22:50:19.666Z,94794.05
2017-07-23T22:52:47.248Z,94796.02
2017-07-23T22:55:14.749Z,94798.39
2017-07-23T22:57:42.254Z,94790.00
2017-07-23T23:00:09.803Z,94794.70
2017-07-23T23:02:37.609Z,94796.33
2017-07-23T23:05:05.154Z,94794.35
2017-07-23T23:07:32.657Z,94785.88
2017-07-23T23:10:00.162Z,94786.34
2017-07-23T23:12:27.727Z,94783.18
2017-07-23T23:14:55.237Z,94785.96
2017-07-23T23:17:22.754Z,94769.52
2017-07-23T23:19:50.304Z,94780.87
2017-07-23T23:22:17.866Z,94784.91
2017-07-23T23:24:45.361Z,94784.25
2017-07-23T23:27:12.923Z,94784.51
2017-07-23T23:29:40.425Z,94767.07
2017-07-23T23:32:07.941Z,94787.34
2017-07-23T23:34:35.497Z,94761.48
2017-07-23T23:37:02.998Z,94793.30
2017-07-23T23:39:30.536Z,94794.02
2017-07-23T23:41:58.097Z,94793.14
2017-07-23T23:44:25.641Z,94794.67
2017-07-23T23:46:53.161Z,94790.20
2017-07-23T23:49:20.748Z,94784.70
2017-07-23T23:51:48.254Z,94777.76
2017-07-23T23:54:15.775Z,94782.94
2017-07-23T23:56:43.338Z,94762.50
2017-07-23T23:59:10.850Z,94776.22
